Time;durP1;ratioP1;P1;durP2;ratioP2;P2;SDS_P1;SDS_P2;PMS_P1;PMS_P2;Temp;Humidity;BMP_temperature;BMP_pressure;BME280_temperature;BME280_humidity;BME280_pressure;Samples;Min_cycle;Max_cycle;Signal;HPM_P1;HPM_P2
2024/04/18 00:00:22;;;;;;;12.60;9.20;;;;;;;6.88;65.79;98181.86;232867;203;136765;-53
2024/04/18 00:05:47;;;;;;;11.10;8.70;;;;;;;6.80;65.94;98184.97;232882;199;137307;-55
2024/04/18 00:10:53;;;;;;;13.00;8.60;;;;;;;6.76;66.03;98186.29;232605;207;151389;-53
2024/04/18 00:16:14;;;;;;;12.00;9.10;;;;;;;6.72;66.11;98188.33;232673;206;137005;-53
2024/04/18 00:21:17;;;;;;;12.50;9.50;;;;;;;6.64;66.20;98190.19;232792;206;140955;-55
2024/04/18 00:26:28;;;;;;;13.50;9.20;;;;;;;6.59;66.27;98190.17;232780;206;156995;-54
2024/04/18 00:31:37;;;;;;;13.60;9.30;;;;;;;6.54;66.36;98193.96;232778;202;137548;-54
2024/04/18 00:36:40;;;;;;;16.20;10.90;;;;;;;6.50;66.65;98193.48;232798;203;136967;-55
2024/04/18 00:41:58;;;;;;;15.60;10.10;;;;;;;6.47;66.88;98192.95;232921;203;151498;-53
2024/04/18 00:47:04;;;;;;;19.10;10.70;;;;;;;6.44;67.00;98193.85;232644;203;137634;-54
2024/04/18 00:52:11;;;;;;;17.20;11.60;;;;;;;6.41;67.05;98198.27;232688;203;137125;-52
2024/04/18 00:57:29;;;;;;;16.10;10.50;;;;;;;6.36;67.18;98201.35;232816;203;156825;-53
2024/04/18 01:02:33;;;;;;;16.00;11.60;;;;;;;6.32;67.16;98209.17;232808;203;138030;-53
2024/04/18 01:07:56;;;;;;;21.60;12.80;;;;;;;6.28;67.40;98208.73;232823;203;137747;-53
2024/04/18 01:13:00;;;;;;;19.40;13.00;;;;;;;6.24;67.43;98207.70;232690;206;151510;-54
2024/04/18 01:18:39;;;;;;;18.70;13.70;;;;;;;6.21;67.59;98205.96;232779;202;136857;-54
2024/04/18 01:23:51;;;;;;;20.80;12.60;;;;;;;6.23;67.65;98204.95;232907;206;137703;-55
2024/04/18 01:28:54;;;;;;;20.00;14.00;;;;;;;6.26;67.46;98207.08;232707;202;152936;-54
2024/04/18 01:34:08;;;;;;;24.20;15.00;;;;;;;6.28;67.33;98210.27;232769;206;137704;-52
2024/04/18 01:39:12;;;;;;;21.40;16.00;;;;;;;6.28;67.21;98207.44;232814;199;137940;-53
2024/04/18 01:44:15;;;;;;;21.80;15.50;;;;;;;6.26;67.44;98206.54;232713;203;151286;-53
2024/04/18 01:49:36;;;;;;;21.50;15.80;;;;;;;6.22;67.47;98210.30;232770;206;137570;-55
2024/04/18 01:54:39;;;;;;;24.50;16.70;;;;;;;6.18;67.43;98213.51;232818;203;137657;-53
2024/04/18 01:59:42;;;;;;;22.80;16.70;;;;;;;6.13;67.60;98215.73;232833;203;151934;-52
2024/04/18 02:04:45;;;;;;;24.20;16.20;;;;;;;6.11;67.63;98214.98;232740;206;137462;-53
2024/04/18 02:10:10;;;;;;;22.50;15.70;;;;;;;6.05;67.87;98212.45;232666;207;137303;-54
2024/04/18 02:15:32;;;;;;;23.30;15.60;;;;;;;5.98;67.76;98210.41;232688;203;151564;-53
2024/04/18 02:20:48;;;;;;;24.40;16.60;;;;;;;5.95;67.91;98209.39;232778;203;137291;-54
2024/04/18 02:25:57;;;;;;;25.00;16.60;;;;;;;5.95;67.90;98211.13;232839;206;136934;-53
2024/04/18 02:31:03;;;;;;;24.40;15.80;;;;;;;5.96;67.86;98208.57;232809;206;150492;-53
2024/04/18 02:36:25;;;;;;;23.10;16.40;;;;;;;5.90;67.71;98215.59;232890;203;137062;-53
2024/04/18 02:41:50;;;;;;;27.60;16.20;;;;;;;5.85;67.80;98213.55;232920;206;137106;-54
2024/04/18 02:47:26;;;;;;;23.30;15.70;;;;;;;5.80;67.87;98214.04;232712;203;151856;-53
2024/04/18 02:52:39;;;;;;;131.70;86.20;;;;;;;5.82;68.39;98212.89;232783;202;138061;-54
2024/04/18 02:57:51;;;;;;;499.20;329.20;;;;;;;5.88;68.09;98214.98;232720;203;138031;-52
2024/04/18 03:02:54;;;;;;;24.50;16.20;;;;;;;5.97;68.11;98212.61;232724;203;151191;-54
2024/04/18 03:07:58;;;;;;;249.80;171.10;;;;;;;5.96;67.65;98209.98;232741;203;137497;-55
2024/04/18 03:13:21;;;;;;;27.10;18.50;;;;;;;6.02;67.78;98214.05;232701;206;138359;-54
2024/04/18 03:18:24;;;;;;;25.50;15.20;;;;;;;6.01;67.24;98213.44;232895;203;152174;-53
2024/04/18 03:23:40;;;;;;;22.80;15.30;;;;;;;5.92;67.37;98214.95;232769;206;136816;-53
2024/04/18 03:28:44;;;;;;;22.50;15.30;;;;;;;5.82;67.42;98210.73;232745;202;137549;-51
2024/04/18 03:33:46;;;;;;;24.10;15.60;;;;;;;5.76;67.58;98214.98;232761;203;151647;-51
2024/04/18 03:38:52;;;;;;;23.90;15.40;;;;;;;5.75;67.58;98216.97;232688;199;139207;-52
2024/04/18 03:43:56;;;;;;;;;;;;;;;5.65;67.64;98218.02;232762;206;138932;-49
2024/04/18 03:49:00;;;;;;;23.20;15.20;;;;;;;5.58;67.88;98223.73;232796;203;152916;-49
2024/04/18 03:54:04;;;;;;;28.40;15.90;;;;;;;5.48;67.91;98232.36;232808;203;137837;-51
2024/04/18 03:59:26;;;;;;;25.90;15.70;;;;;;;5.40;68.40;98230.46;232740;203;137961;-53
2024/04/18 04:04:29;;;;;;;239.00;162.10;;;;;;;5.35;68.66;98233.39;232791;206;153736;-51
2024/04/18 04:09:33;;;;;;;26.70;14.70;;;;;;;5.52;70.53;98239.67;232777;206;137842;-50
2024/04/18 04:14:36;;;;;;;26.80;15.80;;;;;;;5.53;68.48;98245.09;232729;206;137629;-52
2024/04/18 04:19:45;;;;;;;30.40;16.50;;;;;;;5.60;68.12;98248.72;232765;203;153755;-50
2024/04/18 04:24:49;;;;;;;24.10;15.50;;;;;;;5.64;67.93;98256.12;232764;203;138092;-52
2024/04/18 04:29:58;;;;;;;24.60;14.80;;;;;;;5.66;67.87;98260.37;232905;203;138018;-51
2024/04/18 04:35:01;;;;;;;24.00;15.20;;;;;;;5.70;67.76;98267.55;232682;202;155036;-52
2024/04/18 04:40:06;;;;;;;29.60;16.20;;;;;;;5.73;67.77;98273.23;232655;203;137643;-52
2024/04/18 04:45:09;;;;;;;23.50;14.90;;;;;;;5.75;67.81;98272.60;232738;203;137356;-52
2024/04/18 04:50:11;;;;;;;25.90;14.70;;;;;;;5.73;68.25;98276.02;232667;203;153742;-53
2024/04/18 04:55:14;;;;;;;25.70;15.10;;;;;;;5.73;68.52;98280.77;232730;203;138375;-52
2024/04/18 05:00:18;;;;;;;27.40;14.80;;;;;;;5.78;68.87;98285.42;232921;207;138054;-51
2024/04/18 05:05:32;;;;;;;22.40;12.70;;;;;;;5.87;68.92;98293.36;232777;206;152991;-52
2024/04/18 05:10:43;;;;;;;20.10;13.00;;;;;;;6.01;68.90;98294.58;232729;203;137944;-52
2024/04/18 05:15:46;;;;;;;20.10;12.10;;;;;;;6.10;68.19;98301.65;232726;203;137968;-52
2024/04/18 05:21:05;;;;;;;16.70;12.50;;;;;;;6.15;67.69;98299.45;232719;203;152548;-51
2024/04/18 05:26:33;;;;;;;17.90;12.00;;;;;;;6.27;67.63;98301.41;232720;203;137545;-51
2024/04/18 05:31:35;;;;;;;19.90;12.60;;;;;;;6.42;67.10;98308.84;232738;199;141431;-52
2024/04/18 05:36:46;;;;;;;17.30;12.20;;;;;;;6.58;67.09;98310.90;232888;203;153374;-52
2024/04/18 05:41:49;;;;;;;19.60;12.80;;;;;;;6.78;66.94;98316.45;232762;199;137217;-52
2024/04/18 05:47:05;;;;;;;20.50;12.70;;;;;;;6.92;66.65;98320.73;232671;203;137733;-51
2024/04/18 05:52:08;;;;;;;21.20;12.90;;;;;;;7.00;66.20;98324.14;232726;206;153628;-53
2024/04/18 05:57:15;;;;;;;19.70;13.10;;;;;;;7.04;66.02;98320.17;232685;206;137353;-52
2024/04/18 06:02:27;;;;;;;16.60;11.50;;;;;;;7.14;66.10;98320.67;232706;203;137272;-49
2024/04/18 06:07:31;;;;;;;16.70;11.70;;;;;;;7.27;65.85;98311.27;232640;207;152954;-50
2024/04/18 06:12:34;;;;;;;18.00;11.60;;;;;;;7.37;65.67;98316.29;232854;203;137267;-50
2024/04/18 06:17:37;;;;;;;19.20;11.70;;;;;;;7.39;65.36;98317.23;232777;203;138676;-49
2024/04/18 06:22:40;;;;;;;15.10;10.70;;;;;;;7.43;65.32;98320.17;232633;206;154192;-50
2024/04/18 06:27:58;;;;;;;16.90;10.60;;;;;;;7.49;65.08;98321.58;232704;203;138088;-50
2024/04/18 06:33:02;;;;;;;12.10;8.90;;;;;;;7.59;65.48;98323.43;232721;203;138257;-51
2024/04/18 06:38:06;;;;;;;16.20;9.00;;;;;;;7.75;65.62;98328.27;232722;203;154014;-49
2024/04/18 06:43:09;;;;;;;15.90;8.80;;;;;;;7.87;64.98;98330.39;232691;206;137866;-48
2024/04/18 06:48:12;;;;;;;14.70;8.70;;;;;;;7.95;64.68;98330.23;232915;206;137765;-51
2024/04/18 06:53:15;;;;;;;9.50;7.20;;;;;;;8.09;64.49;98333.91;232681;203;153528;-51
2024/04/18 06:58:19;;;;;;;9.30;7.10;;;;;;;8.21;63.69;98336.48;232640;203;137701;-52
2024/04/18 07:03:22;;;;;;;11.20;7.30;;;;;;;8.36;63.52;98333.77;232716;203;138045;-51
2024/04/18 07:08:26;;;;;;;12.10;6.90;;;;;;;8.53;63.29;98336.05;232740;203;153169;-53
2024/04/18 07:13:30;;;;;;;12.70;8.00;;;;;;;8.69;63.27;98333.95;232664;203;137155;-51
2024/04/18 07:18:57;;;;;;;11.80;7.30;;;;;;;8.84;63.00;98335.32;232725;203;138087;-51
2024/04/18 07:24:00;;;;;;;9.60;6.60;;;;;;;8.95;62.32;98329.06;232868;203;154880;-50
2024/04/18 07:29:16;;;;;;;9.10;6.80;;;;;;;9.03;61.84;98330.79;232654;207;138522;-51
2024/04/18 07:34:19;;;;;;;10.70;6.30;;;;;;;9.19;61.56;98326.55;232726;206;137505;-52
2024/04/18 07:39:22;;;;;;;9.30;5.10;;;;;;;9.30;60.71;98329.52;232792;203;153255;-50
2024/04/18 07:44:25;;;;;;;10.00;5.70;;;;;;;9.41;59.91;98329.80;232711;206;137754;-50
2024/04/18 07:49:28;;;;;;;8.70;6.50;;;;;;;9.53;59.66;98329.36;232725;203;138233;-50
2024/04/18 07:54:31;;;;;;;7.40;4.80;;;;;;;9.69;59.22;98328.27;232842;205;153503;-51
2024/04/18 07:59:35;;;;;;;7.50;5.20;;;;;;;9.83;57.94;98322.86;232737;206;137042;-51
2024/04/18 08:04:39;;;;;;;7.40;5.00;;;;;;;9.99;57.92;98323.84;232718;203;137595;-50
2024/04/18 08:09:59;;;;;;;8.50;4.30;;;;;;;10.13;56.81;98319.61;232646;203;154164;-51
2024/04/18 08:15:12;;;;;;;9.20;4.80;;;;;;;10.18;56.26;98316.63;232657;203;138334;-51
2024/04/18 08:20:22;;;;;;;6.70;4.20;;;;;;;10.28;55.74;98316.11;232714;203;137329;-49
2024/04/18 08:25:25;;;;;;;5.80;3.90;;;;;;;10.39;55.04;98318.34;232648;203;153818;-51
2024/04/18 08:30:28;;;;;;;5.90;3.70;;;;;;;10.48;54.31;98311.07;232869;203;137974;-48
2024/04/18 08:35:31;;;;;;;5.70;3.70;;;;;;;10.63;54.18;98307.85;232731;199;137433;-51
2024/04/18 08:40:34;;;;;;;4.50;3.30;;;;;;;10.79;53.48;98312.92;232698;199;153379;-51
2024/04/18 08:45:38;;;;;;;5.20;3.00;;;;;;;10.86;52.64;98307.91;232655;207;138042;-50
2024/04/18 08:50:43;;;;;;;13.60;2.60;;;;;;;10.97;52.48;98303.05;232709;203;137193;-52
2024/04/18 08:55:49;;;;;;;6.20;2.10;;;;;;;10.96;51.70;98303.59;232698;206;153450;-52
2024/04/18 09:00:52;;;;;;;2.70;2.00;;;;;;;11.00;51.30;98304.58;232148;204;139029;-53
2024/04/18 09:05:55;;;;;;;3.20;1.80;;;;;;;11.00;50.73;98306.15;232765;203;138416;-50
2024/04/18 09:10:59;;;;;;;2.80;1.90;;;;;;;10.97;49.55;98303.33;232679;206;153116;-52
2024/04/18 09:16:02;;;;;;;45.10;28.50;;;;;;;11.07;50.59;98307.73;232525;204;137040;-53
2024/04/18 09:21:09;;;;;;;3.30;2.30;;;;;;;11.82;52.19;98296.95;232610;203;138185;-52
2024/04/18 09:26:15;;;;;;;3.20;1.80;;;;;;;12.05;48.11;98293.58;232477;203;154316;-50
2024/04/18 09:31:19;;;;;;;3.20;2.10;;;;;;;11.89;47.63;98299.32;232575;206;137675;-51
2024/04/18 09:36:39;;;;;;;6.40;2.20;;;;;;;11.70;47.21;98298.27;232748;203;137204;-51
2024/04/18 09:41:47;;;;;;;3.70;2.30;;;;;;;11.56;47.30;98300.23;232653;206;153298;-51
2024/04/18 09:46:51;;;;;;;3.80;2.20;;;;;;;11.50;47.80;98300.75;232553;202;138112;-51
2024/04/18 09:51:57;;;;;;;3.80;2.60;;;;;;;11.54;46.79;98299.66;232617;203;138107;-53
2024/04/18 09:57:02;;;;;;;2.90;2.30;;;;;;;11.48;45.45;98297.36;232561;203;153340;-50
2024/04/18 10:02:12;;;;;;;4.30;2.70;;;;;;;11.39;45.66;98299.95;232571;206;141987;-50
2024/04/18 10:07:19;;;;;;;269.50;176.60;;;;;;;11.22;47.32;98304.67;232611;203;137977;-42
2024/04/18 10:12:30;;;;;;;12.30;6.50;;;;;;;11.48;49.84;98309.80;232715;206;153832;-49
2024/04/18 10:17:34;;;;;;;8.20;3.60;;;;;;;11.23;48.70;98313.27;232590;199;138046;-53
2024/04/18 10:22:37;;;;;;;4.80;3.30;;;;;;;11.01;49.70;98323.30;232616;203;138236;-51
2024/04/18 10:27:51;;;;;;;5.60;3.40;;;;;;;10.79;50.53;98327.63;232661;203;154418;-51
2024/04/18 10:32:55;;;;;;;4.70;3.30;;;;;;;10.62;51.11;98333.81;232587;199;141260;-50
2024/04/18 10:38:00;;;;;;;5.80;3.30;;;;;;;10.50;51.36;98329.05;232452;203;137314;-51
2024/04/18 10:43:14;;;;;;;6.60;3.70;;;;;;;10.46;52.01;98329.88;232371;207;153429;-50
2024/04/18 10:48:22;;;;;;;5.50;3.00;;;;;;;10.40;52.68;98336.13;232573;203;138155;-51
2024/04/18 10:53:26;;;;;;;5.80;2.60;;;;;;;10.24;52.36;98342.10;232584;203;137763;-50
2024/04/18 10:58:29;;;;;;;6.90;3.00;;;;;;;10.16;50.88;98333.95;232546;206;155051;-49
2024/04/18 11:03:32;;;;;;;3.80;2.50;;;;;;;10.20;49.69;98337.39;232588;199;138367;-52
2024/04/18 11:08:35;;;;;;;3.40;2.10;;;;;;;10.23;49.22;98337.16;232595;202;137353;-52
2024/04/18 11:13:39;;;;;;;3.80;2.40;;;;;;;10.32;49.62;98341.02;232633;199;153952;-51
2024/04/18 11:18:42;;;;;;;7.00;2.50;;;;;;;10.42;50.01;98340.27;232704;203;137923;-53
2024/04/18 11:23:50;;;;;;;5.50;2.80;;;;;;;10.59;50.45;98340.27;232581;203;138401;-52
2024/04/18 11:28:56;;;;;;;4.00;2.80;;;;;;;10.80;50.73;98339.97;232597;206;152889;-51
2024/04/18 11:33:59;;;;;;;6.40;3.10;;;;;;;10.86;50.44;98341.28;232508;206;137567;-53
2024/04/18 11:39:03;;;;;;;4.50;2.20;;;;;;;10.89;51.43;98350.11;232582;203;138013;-51
2024/04/18 11:44:06;;;;;;;2.40;1.90;;;;;;;10.75;49.88;98356.46;232596;200;153467;-52
2024/04/18 11:49:09;;;;;;;3.60;2.00;;;;;;;10.63;50.63;98359.44;232580;203;143784;-52
2024/04/18 11:54:12;;;;;;;5.00;2.30;;;;;;;10.65;51.23;98360.95;232793;198;138327;-53
2024/04/18 11:59:16;;;;;;;5.60;2.50;;;;;;;10.70;50.72;98360.44;232659;206;153089;-54
2024/04/18 12:04:20;;;;;;;3.30;2.50;;;;;;;10.78;50.63;98362.97;232568;206;138316;-53
2024/04/18 12:09:23;;;;;;;5.10;3.30;;;;;;;10.88;50.95;98357.96;232654;203;137881;-54
2024/04/18 12:14:26;;;;;;;4.60;2.20;;;;;;;10.93;51.66;98361.68;232706;203;153918;-54
2024/04/18 12:19:29;;;;;;;3.70;1.70;;;;;;;11.03;51.78;98365.58;232630;203;137670;-54
2024/04/18 12:24:32;;;;;;;4.30;1.80;;;;;;;11.12;51.48;98362.21;232777;203;140138;-52
2024/04/18 12:29:46;;;;;;;1.80;1.40;;;;;;;11.32;50.14;98367.09;232626;203;153856;-52
2024/04/18 12:34:50;;;;;;;3.50;1.50;;;;;;;11.72;49.21;98365.16;232547;203;138379;-54
2024/04/18 12:39:53;;;;;;;1.90;1.40;;;;;;;12.00;47.44;98369.04;232601;203;137903;-54
2024/04/18 12:44:59;;;;;;;2.90;2.00;;;;;;;12.52;47.12;98357.36;232332;206;153290;-54
2024/04/18 12:50:04;;;;;;;4.40;1.90;;;;;;;12.88;46.44;98354.48;232550;206;149787;-53
2024/04/18 12:55:07;;;;;;;4.30;2.20;;;;;;;13.16;46.82;98347.45;232700;206;138141;-54
2024/04/18 13:00:12;;;;;;;3.90;2.10;;;;;;;13.11;46.56;98350.92;232769;203;153551;-53
2024/04/18 13:05:33;;;;;;;3.40;1.70;;;;;;;13.01;43.67;98351.05;232631;199;138617;-53
2024/04/18 13:10:38;;;;;;;;;;;;;;;12.89;42.65;98357.05;232662;203;139444;-50
2024/04/18 13:15:57;;;;;;;2.80;2.10;;;;;;;12.94;43.35;98360.14;232721;206;152829;-53
2024/04/18 13:21:05;;;;;;;6.50;1.90;;;;;;;13.24;44.17;98357.54;232610;206;137384;-53
2024/04/18 13:26:08;;;;;;;1.90;1.50;;;;;;;13.39;43.34;98353.05;232683;206;137659;-51
2024/04/18 13:31:13;;;;;;;4.50;2.10;;;;;;;13.49;42.16;98352.70;232588;206;153338;-53
2024/04/18 13:36:22;;;;;;;2.90;2.10;;;;;;;13.74;42.37;98353.44;232749;203;137701;-52
2024/04/18 13:41:36;;;;;;;3.20;1.80;;;;;;;13.65;41.42;98353.31;232632;204;138064;-54
2024/04/18 13:46:52;;;;;;;1.90;1.50;;;;;;;13.55;40.70;98350.12;232592;203;153128;-53
2024/04/18 13:52:15;;;;;;;3.60;2.00;;;;;;;13.39;40.01;98350.19;232577;203;138095;-54
2024/04/18 13:57:38;;;;;;;3.00;1.70;;;;;;;13.24;39.76;98347.54;232633;203;138189;-50
2024/04/18 14:02:55;;;;;;;4.30;2.00;;;;;;;13.13;40.65;98346.65;232630;206;154440;-53
2024/04/18 14:07:59;;;;;;;6.20;1.70;;;;;;;13.00;40.22;98347.70;232573;203;138290;-52
2024/04/18 14:13:03;;;;;;;39.60;26.60;;;;;;;12.97;40.80;98349.20;232548;203;137966;-52
2024/04/18 14:24:08;;;;;;;3.40;1.90;;;;;;;12.63;40.88;98352.92;232750;203;138751;-52
2024/04/18 14:29:31;;;;;;;5.60;1.80;;;;;;;12.39;41.80;98360.39;232591;204;138412;-53
2024/04/18 14:34:34;;;;;;;4.20;1.90;;;;;;;12.17;41.93;98361.94;232567;206;152935;-52
2024/04/18 14:39:37;;;;;;;124.50;87.10;;;;;;;12.03;42.32;98361.09;232610;203;138626;-50
2024/04/18 14:44:40;;;;;;;5.20;2.40;;;;;;;11.96;42.41;98368.83;232608;206;138063;-52
2024/04/18 14:49:50;;;;;;;3.20;1.50;;;;;;;11.90;42.22;98372.31;232472;203;153702;-53
2024/04/18 14:55:10;;;;;;;3.50;1.90;;;;;;;11.93;42.41;98375.29;232596;202;138007;-52
2024/04/18 15:00:13;;;;;;;3.20;1.80;;;;;;;12.01;42.83;98373.73;232760;200;142111;-53
2024/04/18 15:05:17;;;;;;;15.10;9.00;;;;;;;12.03;42.68;98376.98;232471;207;153289;-53
2024/04/18 15:10:36;;;;;;;2.10;1.80;;;;;;;11.94;42.25;98387.08;232593;203;137332;-52
2024/04/18 15:15:41;;;;;;;5.80;2.80;;;;;;;11.87;43.71;98387.23;232541;203;137489;-52
2024/04/18 15:20:44;;;;;;;6.10;2.10;;;;;;;11.75;43.80;98384.41;232572;204;153214;-52
2024/04/18 15:25:47;;;;;;;3.60;1.80;;;;;;;11.61;43.11;98392.92;232601;203;137882;-54
2024/04/18 15:30:50;;;;;;;2.60;1.70;;;;;;;11.45;43.55;98396.70;232824;203;137852;-52
2024/04/18 15:35:56;;;;;;;3.70;1.60;;;;;;;11.26;44.56;98407.53;232566;206;153611;-52
2024/04/18 15:40:59;;;;;;;3.90;2.10;;;;;;;11.04;45.78;98412.03;232640;203;138541;-53
2024/04/18 15:46:11;;;;;;;2.80;1.80;;;;;;;10.84;46.70;98412.98;232648;206;137976;-53
2024/04/18 15:51:14;;;;;;;5.30;1.90;;;;;;;10.64;47.72;98417.79;232606;204;154586;-52
2024/04/18 15:56:37;;;;;;;5.60;1.80;;;;;;;10.44;48.19;98423.81;232631;203;137466;-52
2024/04/18 16:02:04;;;;;;;2.90;1.80;;;;;;;10.36;48.32;98431.85;232696;203;139052;-53
2024/04/18 16:07:16;;;;;;;2.50;2.00;;;;;;;10.29;48.04;98430.02;232551;206;159988;-56
2024/04/18 16:12:38;;;;;;;5.10;2.00;;;;;;;10.26;48.09;98433.45;232718;203;138715;-56
2024/04/18 16:17:46;;;;;;;3.80;2.20;;;;;;;10.22;48.51;98436.48;232467;207;138559;-57
2024/04/18 16:22:49;;;;;;;10.20;5.10;;;;;;;10.18;48.68;98438.38;232585;203;154209;-57
2024/04/18 16:28:02;;;;;;;5.30;2.60;;;;;;;10.18;48.91;98441.04;232603;203;138211;-57
2024/04/18 16:33:06;;;;;;;5.30;2.50;;;;;;;10.22;49.26;98443.83;232579;203;137960;-58
2024/04/18 16:38:13;;;;;;;4.80;3.00;;;;;;;10.20;49.50;98453.70;232652;206;153123;-57
2024/04/18 16:43:25;;;;;;;5.90;3.10;;;;;;;10.22;49.76;98465.41;232566;206;138133;-57
2024/04/18 16:48:31;;;;;;;7.10;3.30;;;;;;;10.19;50.17;98476.27;232771;206;137555;-57
2024/04/18 16:53:35;;;;;;;6.10;3.90;;;;;;;10.16;50.44;98479.51;232503;203;153113;-51
2024/04/18 16:58:51;;;;;;;7.10;3.90;;;;;;;10.12;50.92;98485.27;232546;203;137685;-53
2024/04/18 17:03:54;;;;;;;7.20;3.80;;;;;;;10.08;51.48;98486.60;232555;203;139184;-51
2024/04/18 17:09:09;;;;;;;8.30;4.20;;;;;;;10.05;51.95;98488.38;232585;202;153672;-51
2024/04/18 17:14:13;;;;;;;8.00;4.70;;;;;;;10.03;52.37;98491.91;232552;206;138956;-53
2024/04/18 17:19:17;;;;;;;115.40;80.40;;;;;;;10.10;54.14;98497.09;232476;206;137981;-50
2024/04/18 17:24:20;;;;;;;9.10;6.30;;;;;;;10.13;53.18;98497.23;232672;203;153417;-51
2024/04/18 17:29:41;;;;;;;8.70;5.20;;;;;;;10.05;53.25;98498.33;232537;199;138279;-50
2024/04/18 17:34:44;;;;;;;9.20;5.60;;;;;;;9.99;53.69;98501.02;232494;206;137473;-51
2024/04/18 17:40:10;;;;;;;7.60;5.30;;;;;;;9.90;54.57;98500.73;232526;202;153881;-52
2024/04/18 17:45:33;;;;;;;7.40;4.30;;;;;;;9.83;54.89;98497.72;232483;203;138067;-52
2024/04/18 17:50:48;;;;;;;14.30;4.60;;;;;;;9.70;53.70;98504.08;232639;203;137273;-52
2024/04/18 17:55:51;;;;;;;428.90;340.60;;;;;;;9.68;52.85;98513.89;232696;203;154139;-52
2024/04/18 18:00:56;;;;;;;44.10;28.50;;;;;;;9.81;52.39;98517.48;232714;206;138236;-51
2024/04/18 18:06:11;;;;;;;10.30;6.70;;;;;;;9.81;51.95;98523.89;232721;203;137695;-53
2024/04/18 18:11:13;;;;;;;11.00;5.40;;;;;;;9.75;51.82;98529.07;232619;203;153314;-53
2024/04/18 18:16:17;;;;;;;8.70;4.70;;;;;;;9.71;51.31;98535.33;232673;206;137191;-53
2024/04/18 18:21:20;;;;;;;202.80;171.70;;;;;;;9.68;51.62;98539.04;232724;203;139720;-54
2024/04/18 18:26:23;;;;;;;15.20;8.00;;;;;;;9.80;52.04;98545.57;232653;202;154259;-51
2024/04/18 18:31:26;;;;;;;10.60;5.90;;;;;;;9.83;50.64;98548.88;232606;206;138216;-52
2024/04/18 18:36:41;;;;;;;10.60;5.40;;;;;;;9.68;50.12;98552.19;232897;206;138159;-53
2024/04/18 18:41:44;;;;;;;7.80;5.20;;;;;;;9.55;50.32;98561.37;232688;202;154001;-51
2024/04/18 18:46:47;;;;;;;10.50;5.40;;;;;;;9.48;50.45;98565.00;232620;203;137522;-53
2024/04/18 18:51:54;;;;;;;9.20;5.60;;;;;;;9.42;50.58;98569.52;232638;207;138480;-52
2024/04/18 18:56:57;;;;;;;280.70;175.50;;;;;;;9.33;51.58;98569.38;232689;203;155194;-50
2024/04/18 19:02:08;;;;;;;20.00;12.50;;;;;;;9.38;51.53;98581.27;232552;203;141780;-52
2024/04/18 19:07:31;;;;;;;9.30;6.60;;;;;;;9.30;50.89;98585.67;232673;206;139411;-52
2024/04/18 19:12:34;;;;;;;9.00;5.50;;;;;;;9.18;50.93;98594.03;232834;206;153349;-52
2024/04/18 19:17:38;;;;;;;11.00;6.30;;;;;;;9.07;50.98;98596.70;232649;203;137426;-52
2024/04/18 19:22:42;;;;;;;225.20;166.30;;;;;;;8.98;51.68;98591.18;232614;207;138771;-51
2024/04/18 19:27:45;;;;;;;13.10;8.60;;;;;;;9.10;52.01;98598.08;232619;203;153230;-52
2024/04/18 19:32:50;;;;;;;11.60;6.90;;;;;;;9.09;51.72;98598.52;232610;203;137634;-51
2024/04/18 19:37:59;;;;;;;13.50;7.40;;;;;;;8.98;51.87;98598.45;232717;202;138234;-50
2024/04/18 19:43:21;;;;;;;11.50;7.30;;;;;;;8.86;52.33;98607.03;232698;203;154066;-52
2024/04/18 19:48:24;;;;;;;12.50;7.70;;;;;;;8.75;52.77;98606.27;232747;199;138004;-52
2024/04/18 19:53:28;;;;;;;15.50;9.10;;;;;;;8.66;53.32;98616.71;232714;199;138792;-52
2024/04/18 19:58:31;;;;;;;34.60;24.00;;;;;;;8.55;54.53;98624.32;232686;203;153256;-50
2024/04/18 20:03:34;;;;;;;21.50;12.90;;;;;;;8.53;56.86;98623.86;232649;203;139356;-52
2024/04/18 20:08:37;;;;;;;13.90;9.60;;;;;;;8.47;57.09;98620.73;232658;203;137887;-51
2024/04/18 20:13:41;;;;;;;5.50;3.50;;;;;;;8.30;56.93;98638.30;232504;206;153792;-50
2024/04/18 20:18:44;;;;;;;3.10;2.60;;;;;;;8.18;57.06;98632.27;232699;206;137952;-52
2024/04/18 20:23:47;;;;;;;3.40;2.70;;;;;;;7.97;56.70;98625.77;232701;199;141430;-49
2024/04/18 20:28:50;;;;;;;4.60;2.70;;;;;;;7.83;56.76;98620.55;232549;203;153575;-51
2024/04/18 20:33:54;;;;;;;5.40;3.40;;;;;;;7.76;57.47;98620.27;232570;206;140143;-50
2024/04/18 20:38:57;;;;;;;5.30;3.80;;;;;;;7.74;58.29;98625.63;232709;207;138468;-51
2024/04/18 20:44:01;;;;;;;6.40;4.20;;;;;;;7.77;58.63;98634.52;232661;206;154572;-48
2024/04/18 20:49:04;;;;;;;8.60;5.70;;;;;;;7.77;59.20;98634.85;232703;203;137781;-49
2024/04/18 20:54:07;;;;;;;5.10;3.80;;;;;;;7.71;59.58;98638.17;232817;204;136819;-50
2024/04/18 20:59:10;;;;;;;4.80;3.10;;;;;;;7.70;59.57;98637.17;232685;206;153768;-52
2024/04/18 21:04:12;;;;;;;5.10;3.30;;;;;;;7.70;59.51;98638.80;232669;199;137555;-51
2024/04/18 21:09:16;;;;;;;4.80;3.30;;;;;;;7.65;59.71;98637.87;232678;206;137293;-51
2024/04/18 21:14:19;;;;;;;4.70;3.40;;;;;;;7.58;60.01;98642.80;232703;206;154475;-50
2024/04/18 21:19:22;;;;;;;6.20;3.70;;;;;;;7.57;59.95;98645.55;232647;203;137710;-51
2024/04/18 21:24:28;;;;;;;4.10;3.10;;;;;;;7.48;59.99;98648.33;232845;206;139208;-51
2024/04/18 21:29:31;;;;;;;4.90;3.40;;;;;;;7.44;60.25;98655.09;232696;207;153765;-53
2024/04/18 21:34:34;;;;;;;7.10;3.90;;;;;;;7.44;60.36;98655.80;232631;203;138987;-51
2024/04/18 21:39:38;;;;;;;5.20;3.60;;;;;;;7.43;60.58;98658.67;232609;206;138012;-51
2024/04/18 21:44:41;;;;;;;5.60;3.90;;;;;;;7.42;60.58;98659.94;232663;207;153272;-50
2024/04/18 21:49:44;;;;;;;10.50;5.40;;;;;;;7.37;60.62;98658.45;232641;203;137156;-51
2024/04/18 21:54:47;;;;;;;8.70;5.70;;;;;;;7.29;60.81;98655.37;232835;203;137242;-51
2024/04/18 21:59:51;;;;;;;9.50;5.90;;;;;;;7.21;61.14;98659.01;232633;203;152861;-51
2024/04/18 22:05:16;;;;;;;9.40;6.10;;;;;;;7.18;61.28;98659.13;232517;203;137624;-52
2024/04/18 22:10:19;;;;;;;8.90;5.80;;;;;;;7.10;61.60;98662.39;232638;206;138325;-53
2024/04/18 22:15:22;;;;;;;10.60;6.40;;;;;;;7.01;61.86;98668.02;232623;203;153253;-53
2024/04/18 22:20:26;;;;;;;11.40;7.40;;;;;;;6.99;62.15;98663.33;232625;204;137416;-54
2024/04/18 22:25:47;;;;;;;15.10;8.00;;;;;;;6.98;62.36;98666.73;232736;203;138086;-49
2024/04/18 22:30:59;;;;;;;12.20;7.80;;;;;;;6.96;62.63;98668.13;232835;206;153002;-52
2024/04/18 22:36:03;;;;;;;12.40;8.90;;;;;;;6.87;62.87;98666.78;232709;206;140448;-53
2024/04/18 22:41:07;;;;;;;14.20;9.40;;;;;;;6.85;63.31;98669.01;232602;203;138618;-54
2024/04/18 22:46:10;;;;;;;12.20;9.60;;;;;;;6.84;63.37;98674.39;232712;199;153239;-51
2024/04/18 22:51:13;;;;;;;14.60;9.80;;;;;;;6.80;63.85;98679.19;232597;206;137662;-51
2024/04/18 22:56:16;;;;;;;17.50;11.30;;;;;;;6.73;63.94;98680.43;232634;203;138680;-53
2024/04/18 23:01:19;;;;;;;15.50;10.80;;;;;;;6.68;64.33;98683.34;232348;202;153078;-52
2024/04/18 23:06:22;;;;;;;18.40;12.00;;;;;;;6.69;64.47;98675.35;232688;203;137290;-53
2024/04/18 23:11:26;;;;;;;17.10;12.30;;;;;;;6.69;64.54;98680.30;232489;206;137916;-53
2024/04/18 23:16:29;;;;;;;14.40;11.40;;;;;;;6.63;64.69;98675.11;232439;203;153240;-52
2024/04/18 23:21:32;;;;;;;16.80;12.50;;;;;;;6.62;65.01;98673.23;232487;207;138176;-53
2024/04/18 23:26:37;;;;;;;20.80;13.20;;;;;;;6.62;64.89;98668.83;232444;207;139116;-50
2024/04/18 23:31:40;;;;;;;18.10;12.20;;;;;;;6.61;64.98;98668.54;232422;203;153756;-50
2024/04/18 23:36:43;;;;;;;13.20;11.10;;;;;;;6.61;65.11;98668.52;232571;204;138562;-50
2024/04/18 23:41:46;;;;;;;19.20;12.70;;;;;;;6.67;65.24;98665.75;232454;203;138827;-48
2024/04/18 23:46:49;;;;;;;19.50;12.60;;;;;;;6.76;65.09;98665.26;232336;203;154325;-52
2024/04/18 23:51:52;;;;;;;20.00;11.90;;;;;;;6.80;64.72;98661.01;232328;207;138507;-51